sensor_id;sensor_type;location;lat;lon;timestamp;temperature;humidity
48946;DHT22;34999;50.940;3.998;2023-02-11T00:01:52;5.00;99.90
48946;DHT22;34999;50.940;3.998;2023-02-11T00:05:00;4.90;99.90
48946;DHT22;34999;50.940;3.998;2023-02-11T00:08:06;4.80;99.90
48946;DHT22;34999;50.940;3.998;2023-02-11T00:11:14;4.80;99.90
48946;DHT22;34999;50.940;3.998;2023-02-11T00:14:21;4.90;99.90
48946;DHT22;34999;50.940;3.998;2023-02-11T00:17:27;4.90;99.90
48946;DHT22;34999;50.940;3.998;2023-02-11T00:20:34;4.90;99.90
48946;DHT22;34999;50.940;3.998;2023-02-11T00:23:40;4.90;99.90
48946;DHT22;34999;50.940;3.998;2023-02-11T00:26:46;4.90;99.90
48946;DHT22;34999;50.940;3.998;2023-02-11T00:29:52;4.80;99.90
48946;DHT22;34999;50.940;3.998;2023-02-11T00:32:58;4.90;99.90
48946;DHT22;34999;50.940;3.998;2023-02-11T00:36:08;4.80;99.90
48946;DHT22;34999;50.940;3.998;2023-02-11T00:39:15;4.80;99.90
48946;DHT22;34999;50.940;3.998;2023-02-11T00:42:21;4.70;99.90
48946;DHT22;34999;50.940;3.998;2023-02-11T00:45:27;4.80;99.90
48946;DHT22;34999;50.940;3.998;2023-02-11T00:48:35;4.80;99.90
48946;DHT22;34999;50.940;3.998;2023-02-11T00:51:42;4.80;99.90
48946;DHT22;34999;50.940;3.998;2023-02-11T00:54:49;4.80;99.90
48946;DHT22;34999;50.940;3.998;2023-02-11T00:57:54;4.70;99.90
48946;DHT22;34999;50.940;3.998;2023-02-11T01:01:02;4.70;99.90
48946;DHT22;34999;50.940;3.998;2023-02-11T01:04:09;4.60;99.90
48946;DHT22;34999;50.940;3.998;2023-02-11T01:07:17;4.50;99.90
48946;DHT22;34999;50.940;3.998;2023-02-11T01:10:23;4.50;99.90
48946;DHT22;34999;50.940;3.998;2023-02-11T01:13:29;4.50;99.90
48946;DHT22;34999;50.940;3.998;2023-02-11T01:16:35;4.50;99.90
48946;DHT22;34999;50.940;3.998;2023-02-11T01:19:41;4.50;99.90
48946;DHT22;34999;50.940;3.998;2023-02-11T01:22:48;4.50;99.90
48946;DHT22;34999;50.940;3.998;2023-02-11T01:25:54;4.50;99.90
48946;DHT22;34999;50.940;3.998;2023-02-11T01:29:00;4.60;99.90
48946;DHT22;34999;50.940;3.998;2023-02-11T01:32:06;4.60;99.90
48946;DHT22;34999;50.940;3.998;2023-02-11T01:35:12;4.70;99.90
48946;DHT22;34999;50.940;3.998;2023-02-11T01:38:22;4.70;99.90
48946;DHT22;34999;50.940;3.998;2023-02-11T01:41:29;4.70;99.90
48946;DHT22;34999;50.940;3.998;2023-02-11T01:44:36;4.70;99.90
48946;DHT22;34999;50.940;3.998;2023-02-11T01:47:43;4.70;99.90
48946;DHT22;34999;50.940;3.998;2023-02-11T01:50:53;4.60;99.90
48946;DHT22;34999;50.940;3.998;2023-02-11T01:54:05;4.70;99.90
48946;DHT22;34999;50.940;3.998;2023-02-11T01:57:31;4.70;99.90
48946;DHT22;34999;50.940;3.998;2023-02-11T02:00:38;4.80;99.90
48946;DHT22;34999;50.940;3.998;2023-02-11T02:03:48;4.90;99.90
48946;DHT22;34999;50.940;3.998;2023-02-11T02:07:00;5.00;99.90
48946;DHT22;34999;50.940;3.998;2023-02-11T02:10:14;5.00;99.90
48946;DHT22;34999;50.940;3.998;2023-02-11T02:13:22;5.10;99.90
48946;DHT22;34999;50.940;3.998;2023-02-11T02:16:31;5.10;99.90
48946;DHT22;34999;50.940;3.998;2023-02-11T02:20:08;5.20;99.90
48946;DHT22;34999;50.940;3.998;2023-02-11T02:23:24;5.30;99.90
48946;DHT22;34999;50.940;3.998;2023-02-11T02:26:51;5.40;99.90
48946;DHT22;34999;50.940;3.998;2023-02-11T02:30:35;5.40;99.90
48946;DHT22;34999;50.940;3.998;2023-02-11T02:33:49;5.50;99.90
48946;DHT22;34999;50.940;3.998;2023-02-11T02:37:02;5.50;99.90
48946;DHT22;34999;50.940;3.998;2023-02-11T02:40:11;5.60;99.90
48946;DHT22;34999;50.940;3.998;2023-02-11T02:43:20;5.60;99.90
48946;DHT22;34999;50.940;3.998;2023-02-11T02:46:29;5.60;99.90
48946;DHT22;34999;50.940;3.998;2023-02-11T02:49:36;5.60;99.90
48946;DHT22;34999;50.940;3.998;2023-02-11T02:52:52;5.60;99.90
48946;DHT22;34999;50.940;3.998;2023-02-11T02:56:06;5.70;99.90
48946;DHT22;34999;50.940;3.998;2023-02-11T02:59:25;5.70;99.90
48946;DHT22;34999;50.940;3.998;2023-02-11T03:02:35;5.70;99.90
48946;DHT22;34999;50.940;3.998;2023-02-11T03:05:51;5.80;99.90
48946;DHT22;34999;50.940;3.998;2023-02-11T03:09:02;5.90;99.90
48946;DHT22;34999;50.940;3.998;2023-02-11T03:12:15;5.90;99.90
48946;DHT22;34999;50.940;3.998;2023-02-11T03:15:23;5.90;99.90
48946;DHT22;34999;50.940;3.998;2023-02-11T03:18:30;5.90;99.90
48946;DHT22;34999;50.940;3.998;2023-02-11T03:21:39;5.90;99.90
48946;DHT22;34999;50.940;3.998;2023-02-11T03:24:47;6.00;99.90
48946;DHT22;34999;50.940;3.998;2023-02-11T03:27:58;6.00;99.90
48946;DHT22;34999;50.940;3.998;2023-02-11T03:31:11;5.90;99.90
48946;DHT22;34999;50.940;3.998;2023-02-11T03:34:24;6.00;99.90
48946;DHT22;34999;50.940;3.998;2023-02-11T03:37:37;6.10;99.90
48946;DHT22;34999;50.940;3.998;2023-02-11T03:40:44;6.00;99.90
48946;DHT22;34999;50.940;3.998;2023-02-11T03:43:53;6.00;99.90
48946;DHT22;34999;50.940;3.998;2023-02-11T03:47:01;6.00;99.90
48946;DHT22;34999;50.940;3.998;2023-02-11T03:50:11;6.00;99.90
48946;DHT22;34999;50.940;3.998;2023-02-11T03:53:21;6.00;99.90
48946;DHT22;34999;50.940;3.998;2023-02-11T03:56:31;6.00;99.90
48946;DHT22;34999;50.940;3.998;2023-02-11T03:59:49;6.00;99.90
48946;DHT22;34999;50.940;3.998;2023-02-11T04:02:55;6.10;99.90
48946;DHT22;34999;50.940;3.998;2023-02-11T04:06:02;6.10;99.90
48946;DHT22;34999;50.940;3.998;2023-02-11T04:09:09;6.10;99.90
48946;DHT22;34999;50.940;3.998;2023-02-11T04:12:15;6.20;99.90
48946;DHT22;34999;50.940;3.998;2023-02-11T04:15:21;6.10;99.90
48946;DHT22;34999;50.940;3.998;2023-02-11T04:18:27;6.10;99.90
48946;DHT22;34999;50.940;3.998;2023-02-11T04:21:33;6.20;99.90
48946;DHT22;34999;50.940;3.998;2023-02-11T04:24:40;6.10;99.90
48946;DHT22;34999;50.940;3.998;2023-02-11T04:27:47;6.20;99.90
48946;DHT22;34999;50.940;3.998;2023-02-11T04:30:53;6.20;99.90
48946;DHT22;34999;50.940;3.998;2023-02-11T04:33:59;6.30;99.90
48946;DHT22;34999;50.940;3.998;2023-02-11T04:37:04;6.20;99.90
48946;DHT22;34999;50.940;3.998;2023-02-11T04:40:12;6.20;99.90
48946;DHT22;34999;50.940;3.998;2023-02-11T04:43:18;6.30;99.90
48946;DHT22;34999;50.940;3.998;2023-02-11T04:46:23;6.30;99.90
48946;DHT22;34999;50.940;3.998;2023-02-11T04:49:29;6.30;99.90
48946;DHT22;34999;50.940;3.998;2023-02-11T04:52:36;6.30;99.90
48946;DHT22;34999;50.940;3.998;2023-02-11T04:55:43;6.30;99.90
48946;DHT22;34999;50.940;3.998;2023-02-11T04:58:49;6.30;99.90
48946;DHT22;34999;50.940;3.998;2023-02-11T05:01:55;6.30;99.90
48946;DHT22;34999;50.940;3.998;2023-02-11T05:05:01;6.30;99.90
48946;DHT22;34999;50.940;3.998;2023-02-11T05:08:07;6.30;99.90
48946;DHT22;34999;50.940;3.998;2023-02-11T05:11:16;6.30;99.90
48946;DHT22;34999;50.940;3.998;2023-02-11T05:14:22;6.30;99.90
48946;DHT22;34999;50.940;3.998;2023-02-11T05:17:29;6.30;99.90
48946;DHT22;34999;50.940;3.998;2023-02-11T05:20:36;6.20;99.90
48946;DHT22;34999;50.940;3.998;2023-02-11T05:23:43;6.20;99.90
48946;DHT22;34999;50.940;3.998;2023-02-11T05:26:50;6.20;99.90
48946;DHT22;34999;50.940;3.998;2023-02-11T05:29:56;6.10;99.90
48946;DHT22;34999;50.940;3.998;2023-02-11T05:33:02;6.10;99.90
48946;DHT22;34999;50.940;3.998;2023-02-11T05:36:10;6.10;99.90
48946;DHT22;34999;50.940;3.998;2023-02-11T05:39:15;6.00;99.90
48946;DHT22;34999;50.940;3.998;2023-02-11T05:42:23;6.00;99.90
48946;DHT22;34999;50.940;3.998;2023-02-11T05:45:28;6.00;99.90
48946;DHT22;34999;50.940;3.998;2023-02-11T05:48:34;6.20;99.90
48946;DHT22;34999;50.940;3.998;2023-02-11T05:51:40;6.20;99.90
48946;DHT22;34999;50.940;3.998;2023-02-11T05:54:47;6.20;99.90
48946;DHT22;34999;50.940;3.998;2023-02-11T05:57:54;6.20;99.90
48946;DHT22;34999;50.940;3.998;2023-02-11T06:01:00;6.20;99.90
48946;DHT22;34999;50.940;3.998;2023-02-11T06:04:05;6.20;99.90
48946;DHT22;34999;50.940;3.998;2023-02-11T06:07:11;6.20;99.90
48946;DHT22;34999;50.940;3.998;2023-02-11T06:10:19;6.20;99.90
48946;DHT22;34999;50.940;3.998;2023-02-11T06:13:25;6.20;99.90
48946;DHT22;34999;50.940;3.998;2023-02-11T06:16:31;6.30;99.90
48946;DHT22;34999;50.940;3.998;2023-02-11T06:19:37;6.30;99.90
48946;DHT22;34999;50.940;3.998;2023-02-11T06:22:43;6.30;99.90
48946;DHT22;34999;50.940;3.998;2023-02-11T06:25:50;6.40;99.90
48946;DHT22;34999;50.940;3.998;2023-02-11T06:29:00;6.30;99.90
48946;DHT22;34999;50.940;3.998;2023-02-11T06:32:06;6.30;99.90
48946;DHT22;34999;50.940;3.998;2023-02-11T06:35:32;6.30;99.90
48946;DHT22;34999;50.940;3.998;2023-02-11T06:38:39;6.30;99.90
48946;DHT22;34999;50.940;3.998;2023-02-11T06:41:44;6.30;99.90
48946;DHT22;34999;50.940;3.998;2023-02-11T06:44:52;6.20;99.90
48946;DHT22;34999;50.940;3.998;2023-02-11T06:47:58;6.20;99.90
48946;DHT22;34999;50.940;3.998;2023-02-11T06:51:06;6.10;99.90
48946;DHT22;34999;50.940;3.998;2023-02-11T06:54:12;6.10;99.90
48946;DHT22;34999;50.940;3.998;2023-02-11T06:57:19;6.00;99.90
48946;DHT22;34999;50.940;3.998;2023-02-11T07:00:26;5.90;99.90
48946;DHT22;34999;50.940;3.998;2023-02-11T07:03:33;6.00;99.90
48946;DHT22;34999;50.940;3.998;2023-02-11T07:06:40;6.00;99.90
48946;DHT22;34999;50.940;3.998;2023-02-11T07:09:46;6.00;99.90
48946;DHT22;34999;50.940;3.998;2023-02-11T07:12:52;6.00;99.90
48946;DHT22;34999;50.940;3.998;2023-02-11T07:16:05;6.00;99.90
48946;DHT22;34999;50.940;3.998;2023-02-11T07:19:11;6.00;99.90
48946;DHT22;34999;50.940;3.998;2023-02-11T07:22:17;6.10;99.90
48946;DHT22;34999;50.940;3.998;2023-02-11T07:25:23;6.20;99.90
48946;DHT22;34999;50.940;3.998;2023-02-11T07:28:29;6.20;99.90
48946;DHT22;34999;50.940;3.998;2023-02-11T07:31:37;6.30;99.90
48946;DHT22;34999;50.940;3.998;2023-02-11T07:34:44;6.30;99.90
48946;DHT22;34999;50.940;3.998;2023-02-11T07:37:51;6.30;99.90
48946;DHT22;34999;50.940;3.998;2023-02-11T07:40:59;6.40;99.90
48946;DHT22;34999;50.940;3.998;2023-02-11T07:44:05;6.40;99.90
48946;DHT22;34999;50.940;3.998;2023-02-11T07:47:12;6.50;99.90
48946;DHT22;34999;50.940;3.998;2023-02-11T07:50:17;6.50;99.90
48946;DHT22;34999;50.940;3.998;2023-02-11T07:53:23;6.60;99.90
48946;DHT22;34999;50.940;3.998;2023-02-11T07:56:29;6.60;99.90
48946;DHT22;34999;50.940;3.998;2023-02-11T07:59:35;6.60;99.90
48946;DHT22;34999;50.940;3.998;2023-02-11T08:02:42;6.70;99.90
48946;DHT22;34999;50.940;3.998;2023-02-11T08:05:49;6.80;99.90
48946;DHT22;34999;50.940;3.998;2023-02-11T08:08:55;6.80;99.90
48946;DHT22;34999;50.940;3.998;2023-02-11T08:12:02;6.80;99.90
48946;DHT22;34999;50.940;3.998;2023-02-11T08:15:08;6.90;99.90
48946;DHT22;34999;50.940;3.998;2023-02-11T08:18:15;7.00;99.90
48946;DHT22;34999;50.940;3.998;2023-02-11T08:21:21;7.00;99.90
48946;DHT22;34999;50.940;3.998;2023-02-11T08:24:27;7.10;99.90
48946;DHT22;34999;50.940;3.998;2023-02-11T08:27:33;7.10;99.90
48946;DHT22;34999;50.940;3.998;2023-02-11T08:30:39;7.20;99.90
48946;DHT22;34999;50.940;3.998;2023-02-11T08:33:47;7.30;99.90
48946;DHT22;34999;50.940;3.998;2023-02-11T08:36:53;7.30;99.90
48946;DHT22;34999;50.940;3.998;2023-02-11T08:39:59;7.40;99.90
48946;DHT22;34999;50.940;3.998;2023-02-11T08:43:05;7.40;99.90
48946;DHT22;34999;50.940;3.998;2023-02-11T08:46:13;7.40;99.90
48946;DHT22;34999;50.940;3.998;2023-02-11T08:49:22;7.40;99.90
48946;DHT22;34999;50.940;3.998;2023-02-11T08:52:27;7.40;99.90
48946;DHT22;34999;50.940;3.998;2023-02-11T08:55:33;7.40;99.90
48946;DHT22;34999;50.940;3.998;2023-02-11T08:58:39;7.50;99.90
48946;DHT22;34999;50.940;3.998;2023-02-11T09:01:45;7.50;99.90
48946;DHT22;34999;50.940;3.998;2023-02-11T09:04:53;7.50;99.90
48946;DHT22;34999;50.940;3.998;2023-02-11T09:07:58;7.50;99.90
48946;DHT22;34999;50.940;3.998;2023-02-11T09:11:04;7.50;99.90
48946;DHT22;34999;50.940;3.998;2023-02-11T09:14:16;7.60;99.90
48946;DHT22;34999;50.940;3.998;2023-02-11T09:17:22;7.60;99.90
48946;DHT22;34999;50.940;3.998;2023-02-11T09:20:29;7.60;99.90
48946;DHT22;34999;50.940;3.998;2023-02-11T09:23:35;7.70;99.90
48946;DHT22;34999;50.940;3.998;2023-02-11T09:26:42;7.70;99.90
48946;DHT22;34999;50.940;3.998;2023-02-11T09:29:47;7.70;99.90
48946;DHT22;34999;50.940;3.998;2023-02-11T09:32:53;7.80;99.90
48946;DHT22;34999;50.940;3.998;2023-02-11T09:36:01;7.80;99.90
48946;DHT22;34999;50.940;3.998;2023-02-11T09:39:11;7.80;99.90
48946;DHT22;34999;50.940;3.998;2023-02-11T09:45:45;7.90;99.90
48946;DHT22;34999;50.940;3.998;2023-02-11T09:48:53;8.00;99.90
48946;DHT22;34999;50.940;3.998;2023-02-11T09:52:05;8.10;99.90
48946;DHT22;34999;50.940;3.998;2023-02-11T09:55:18;8.10;99.90
48946;DHT22;34999;50.940;3.998;2023-02-11T09:58:27;8.20;99.90
48946;DHT22;34999;50.940;3.998;2023-02-11T10:01:38;8.20;99.90
48946;DHT22;34999;50.940;3.998;2023-02-11T10:05:12;8.20;99.90
48946;DHT22;34999;50.940;3.998;2023-02-11T10:08:27;8.20;99.90
48946;DHT22;34999;50.940;3.998;2023-02-11T10:11:41;8.30;99.90
48946;DHT22;34999;50.940;3.998;2023-02-11T10:15:07;8.20;99.90
48946;DHT22;34999;50.940;3.998;2023-02-11T10:18:37;8.20;99.90
48946;DHT22;34999;50.940;3.998;2023-02-11T10:21:50;8.30;99.90
48946;DHT22;34999;50.940;3.998;2023-02-11T10:25:11;8.30;99.90
48946;DHT22;34999;50.940;3.998;2023-02-11T10:28:23;8.30;99.90
48946;DHT22;34999;50.940;3.998;2023-02-11T10:31:36;8.30;99.90
48946;DHT22;34999;50.940;3.998;2023-02-11T10:34:44;8.30;99.90
48946;DHT22;34999;50.940;3.998;2023-02-11T10:37:50;8.30;99.90
48946;DHT22;34999;50.940;3.998;2023-02-11T10:40:58;8.40;99.90
48946;DHT22;34999;50.940;3.998;2023-02-11T10:44:05;8.40;99.90
48946;DHT22;34999;50.940;3.998;2023-02-11T10:47:14;8.30;99.90
48946;DHT22;34999;50.940;3.998;2023-02-11T10:50:24;8.40;99.90
48946;DHT22;34999;50.940;3.998;2023-02-11T10:53:30;8.40;99.90
48946;DHT22;34999;50.940;3.998;2023-02-11T10:56:40;8.40;99.90
48946;DHT22;34999;50.940;3.998;2023-02-11T10:59:57;8.40;99.90
48946;DHT22;34999;50.940;3.998;2023-02-11T11:03:06;8.40;99.90
48946;DHT22;34999;50.940;3.998;2023-02-11T11:06:28;8.40;99.90
48946;DHT22;34999;50.940;3.998;2023-02-11T11:09:44;8.40;99.90
48946;DHT22;34999;50.940;3.998;2023-02-11T11:12:53;8.50;99.90
48946;DHT22;34999;50.940;3.998;2023-02-11T11:16:24;8.50;99.90
48946;DHT22;34999;50.940;3.998;2023-02-11T11:19:31;8.50;99.90
48946;DHT22;34999;50.940;3.998;2023-02-11T11:22:37;8.60;99.90
48946;DHT22;34999;50.940;3.998;2023-02-11T11:25:45;8.60;99.90
48946;DHT22;34999;50.940;3.998;2023-02-11T11:29:08;8.60;99.90
48946;DHT22;34999;50.940;3.998;2023-02-11T11:32:18;8.60;99.90
48946;DHT22;34999;50.940;3.998;2023-02-11T11:35:26;8.70;99.90
48946;DHT22;34999;50.940;3.998;2023-02-11T11:38:35;8.70;99.90
48946;DHT22;34999;50.940;3.998;2023-02-11T11:41:49;8.70;99.90
48946;DHT22;34999;50.940;3.998;2023-02-11T11:44:58;8.80;99.90
48946;DHT22;34999;50.940;3.998;2023-02-11T11:48:08;8.80;99.90
48946;DHT22;34999;50.940;3.998;2023-02-11T11:51:17;8.90;99.90
48946;DHT22;34999;50.940;3.998;2023-02-11T11:54:24;9.00;99.90
48946;DHT22;34999;50.940;3.998;2023-02-11T11:57:36;9.10;99.90
48946;DHT22;34999;50.940;3.998;2023-02-11T12:00:51;9.20;99.90
48946;DHT22;34999;50.940;3.998;2023-02-11T12:04:17;9.20;99.90
48946;DHT22;34999;50.940;3.998;2023-02-11T12:07:35;9.30;99.90
48946;DHT22;34999;50.940;3.998;2023-02-11T12:10:51;9.30;99.90
48946;DHT22;34999;50.940;3.998;2023-02-11T12:14:11;9.40;99.90
48946;DHT22;34999;50.940;3.998;2023-02-11T12:17:37;9.30;99.90
48946;DHT22;34999;50.940;3.998;2023-02-11T12:21:02;9.40;99.90
48946;DHT22;34999;50.940;3.998;2023-02-11T12:24:25;9.40;99.90
48946;DHT22;34999;50.940;3.998;2023-02-11T12:27:45;9.30;99.90
48946;DHT22;34999;50.940;3.998;2023-02-11T12:31:10;9.20;99.90
48946;DHT22;34999;50.940;3.998;2023-02-11T12:34:44;9.20;99.90
48946;DHT22;34999;50.940;3.998;2023-02-11T12:38:11;9.30;99.90
48946;DHT22;34999;50.940;3.998;2023-02-11T12:41:39;9.30;99.90
48946;DHT22;34999;50.940;3.998;2023-02-11T12:45:17;9.40;99.90
48946;DHT22;34999;50.940;3.998;2023-02-11T12:48:36;9.40;99.90
48946;DHT22;34999;50.940;3.998;2023-02-11T12:51:58;9.30;99.90
48946;DHT22;34999;50.940;3.998;2023-02-11T12:55:15;9.30;99.90
48946;DHT22;34999;50.940;3.998;2023-02-11T12:58:27;9.40;99.90
48946;DHT22;34999;50.940;3.998;2023-02-11T13:01:49;9.40;99.90
48946;DHT22;34999;50.940;3.998;2023-02-11T13:05:00;9.30;99.90
48946;DHT22;34999;50.940;3.998;2023-02-11T13:08:12;9.40;99.90
48946;DHT22;34999;50.940;3.998;2023-02-11T13:11:21;9.40;99.90
48946;DHT22;34999;50.940;3.998;2023-02-11T13:14:30;9.40;99.90
48946;DHT22;34999;50.940;3.998;2023-02-11T13:17:45;9.40;99.90
48946;DHT22;34999;50.940;3.998;2023-02-11T13:20:58;9.40;99.90
48946;DHT22;34999;50.940;3.998;2023-02-11T13:24:20;9.40;99.90
48946;DHT22;34999;50.940;3.998;2023-02-11T13:27:35;9.40;99.90
48946;DHT22;34999;50.940;3.998;2023-02-11T13:30:43;9.50;99.90
48946;DHT22;34999;50.940;3.998;2023-02-11T13:33:51;9.50;99.90
48946;DHT22;34999;50.940;3.998;2023-02-11T13:36:57;9.50;99.90
48946;DHT22;34999;50.940;3.998;2023-02-11T13:40:18;9.50;99.90
48946;DHT22;34999;50.940;3.998;2023-02-11T13:43:27;9.50;99.90
48946;DHT22;34999;50.940;3.998;2023-02-11T13:46:52;9.50;99.90
48946;DHT22;34999;50.940;3.998;2023-02-11T13:50:00;9.50;99.90
48946;DHT22;34999;50.940;3.998;2023-02-11T13:53:07;9.50;99.90
48946;DHT22;34999;50.940;3.998;2023-02-11T13:56:30;9.50;99.90
48946;DHT22;34999;50.940;3.998;2023-02-11T13:59:45;9.50;99.90
48946;DHT22;34999;50.940;3.998;2023-02-11T14:03:23;9.50;99.90
48946;DHT22;34999;50.940;3.998;2023-02-11T14:10:50;9.50;99.90
48946;DHT22;34999;50.940;3.998;2023-02-11T14:17:34;9.40;99.90
48946;DHT22;34999;50.940;3.998;2023-02-11T14:20:41;9.40;99.90
48946;DHT22;34999;50.940;3.998;2023-02-11T14:23:49;9.50;99.90
48946;DHT22;34999;50.940;3.998;2023-02-11T14:26:59;9.40;99.90
48946;DHT22;34999;50.940;3.998;2023-02-11T14:30:38;9.50;99.90
48946;DHT22;34999;50.940;3.998;2023-02-11T14:34:21;9.50;99.90
48946;DHT22;34999;50.940;3.998;2023-02-11T14:37:42;9.50;99.90
48946;DHT22;34999;50.940;3.998;2023-02-11T14:40:57;9.50;99.90
48946;DHT22;34999;50.940;3.998;2023-02-11T14:44:13;9.50;99.90
48946;DHT22;34999;50.940;3.998;2023-02-11T14:47:26;9.50;99.90
48946;DHT22;34999;50.940;3.998;2023-02-11T14:50:39;9.50;99.90
48946;DHT22;34999;50.940;3.998;2023-02-11T14:53:49;9.40;99.90
48946;DHT22;34999;50.940;3.998;2023-02-11T14:57:07;9.50;99.90
48946;DHT22;34999;50.940;3.998;2023-02-11T15:00:16;9.40;99.90
48946;DHT22;34999;50.940;3.998;2023-02-11T15:03:27;9.40;99.90
48946;DHT22;34999;50.940;3.998;2023-02-11T15:06:36;9.40;99.90
48946;DHT22;34999;50.940;3.998;2023-02-11T15:09:44;9.40;99.90
48946;DHT22;34999;50.940;3.998;2023-02-11T15:12:52;9.40;99.90
48946;DHT22;34999;50.940;3.998;2023-02-11T15:16:00;9.40;99.90
48946;DHT22;34999;50.940;3.998;2023-02-11T15:19:21;9.30;99.90
48946;DHT22;34999;50.940;3.998;2023-02-11T15:22:32;9.30;99.90
48946;DHT22;34999;50.940;3.998;2023-02-11T15:25:43;9.30;99.90
48946;DHT22;34999;50.940;3.998;2023-02-11T15:28:56;9.30;99.90
48946;DHT22;34999;50.940;3.998;2023-02-11T15:32:11;9.30;99.90
48946;DHT22;34999;50.940;3.998;2023-02-11T15:35:19;9.30;99.90
48946;DHT22;34999;50.940;3.998;2023-02-11T15:38:25;9.20;99.90
48946;DHT22;34999;50.940;3.998;2023-02-11T15:41:35;9.20;99.90
48946;DHT22;34999;50.940;3.998;2023-02-11T15:44:41;9.20;99.90
48946;DHT22;34999;50.940;3.998;2023-02-11T15:47:49;9.20;99.90
48946;DHT22;34999;50.940;3.998;2023-02-11T15:51:00;9.10;99.90
48946;DHT22;34999;50.940;3.998;2023-02-11T15:54:15;9.20;99.90
48946;DHT22;34999;50.940;3.998;2023-02-11T15:57:22;9.10;99.90
48946;DHT22;34999;50.940;3.998;2023-02-11T16:00:32;9.10;99.90
48946;DHT22;34999;50.940;3.998;2023-02-11T16:03:40;9.10;99.90
48946;DHT22;34999;50.940;3.998;2023-02-11T16:06:48;9.00;99.90
48946;DHT22;34999;50.940;3.998;2023-02-11T16:09:56;9.00;99.90
48946;DHT22;34999;50.940;3.998;2023-02-11T16:13:17;9.00;99.90
48946;DHT22;34999;50.940;3.998;2023-02-11T16:16:25;9.00;99.90
48946;DHT22;34999;50.940;3.998;2023-02-11T16:19:33;8.90;99.90
48946;DHT22;34999;50.940;3.998;2023-02-11T16:22:44;8.90;99.90
48946;DHT22;34999;50.940;3.998;2023-02-11T16:25:56;8.80;99.90
48946;DHT22;34999;50.940;3.998;2023-02-11T16:29:11;8.80;99.90
48946;DHT22;34999;50.940;3.998;2023-02-11T16:32:19;8.80;99.90
48946;DHT22;34999;50.940;3.998;2023-02-11T16:35:25;8.80;99.90
48946;DHT22;34999;50.940;3.998;2023-02-11T16:38:33;8.70;99.90
48946;DHT22;34999;50.940;3.998;2023-02-11T16:41:39;8.70;99.90
48946;DHT22;34999;50.940;3.998;2023-02-11T16:44:48;8.70;99.90
48946;DHT22;34999;50.940;3.998;2023-02-11T16:47:55;8.60;99.90
48946;DHT22;34999;50.940;3.998;2023-02-11T16:51:01;8.60;99.90
48946;DHT22;34999;50.940;3.998;2023-02-11T16:54:13;8.60;99.90
48946;DHT22;34999;50.940;3.998;2023-02-11T16:57:21;8.60;99.90
48946;DHT22;34999;50.940;3.998;2023-02-11T17:00:28;8.60;99.90
48946;DHT22;34999;50.940;3.998;2023-02-11T17:03:34;8.60;99.90
48946;DHT22;34999;50.940;3.998;2023-02-11T17:06:44;8.50;99.90
48946;DHT22;34999;50.940;3.998;2023-02-11T17:09:53;8.50;99.90
48946;DHT22;34999;50.940;3.998;2023-02-11T17:12:58;8.50;99.90
48946;DHT22;34999;50.940;3.998;2023-02-11T17:16:07;8.50;99.90
48946;DHT22;34999;50.940;3.998;2023-02-11T17:19:16;8.50;99.90
48946;DHT22;34999;50.940;3.998;2023-02-11T17:22:24;8.40;99.90
48946;DHT22;34999;50.940;3.998;2023-02-11T17:25:31;8.40;99.90
48946;DHT22;34999;50.940;3.998;2023-02-11T17:28:37;8.40;99.90
48946;DHT22;34999;50.940;3.998;2023-02-11T17:31:43;8.40;99.90
48946;DHT22;34999;50.940;3.998;2023-02-11T17:34:51;8.40;99.90
48946;DHT22;34999;50.940;3.998;2023-02-11T17:37:57;8.40;99.90
48946;DHT22;34999;50.940;3.998;2023-02-11T17:41:06;8.40;99.90
48946;DHT22;34999;50.940;3.998;2023-02-11T17:44:12;8.40;99.90
48946;DHT22;34999;50.940;3.998;2023-02-11T17:47:20;8.30;99.90
48946;DHT22;34999;50.940;3.998;2023-02-11T17:50:26;8.30;99.90
48946;DHT22;34999;50.940;3.998;2023-02-11T17:53:32;8.30;99.90
48946;DHT22;34999;50.940;3.998;2023-02-11T17:56:41;8.30;99.90
48946;DHT22;34999;50.940;3.998;2023-02-11T17:59:46;8.30;99.90
48946;DHT22;34999;50.940;3.998;2023-02-11T18:02:53;8.30;99.90
48946;DHT22;34999;50.940;3.998;2023-02-11T18:06:01;8.30;99.90
48946;DHT22;34999;50.940;3.998;2023-02-11T18:09:08;8.30;99.90
48946;DHT22;34999;50.940;3.998;2023-02-11T18:12:16;8.20;99.90
48946;DHT22;34999;50.940;3.998;2023-02-11T18:15:28;8.20;99.90
48946;DHT22;34999;50.940;3.998;2023-02-11T18:18:34;8.30;99.90
48946;DHT22;34999;50.940;3.998;2023-02-11T18:21:40;8.20;99.90
48946;DHT22;34999;50.940;3.998;2023-02-11T18:24:50;8.20;99.90
48946;DHT22;34999;50.940;3.998;2023-02-11T18:27:57;8.20;99.90
48946;DHT22;34999;50.940;3.998;2023-02-11T18:31:04;8.20;99.90
48946;DHT22;34999;50.940;3.998;2023-02-11T18:34:11;8.10;99.90
48946;DHT22;34999;50.940;3.998;2023-02-11T18:37:17;8.10;99.90
48946;DHT22;34999;50.940;3.998;2023-02-11T18:40:23;8.10;99.90
48946;DHT22;34999;50.940;3.998;2023-02-11T18:43:30;8.10;99.90
48946;DHT22;34999;50.940;3.998;2023-02-11T18:46:38;8.10;99.90
48946;DHT22;34999;50.940;3.998;2023-02-11T18:49:44;8.10;99.90
48946;DHT22;34999;50.940;3.998;2023-02-11T18:52:50;8.10;99.90
48946;DHT22;34999;50.940;3.998;2023-02-11T18:55:56;8.10;99.90
48946;DHT22;34999;50.940;3.998;2023-02-11T18:59:03;8.10;99.90
48946;DHT22;34999;50.940;3.998;2023-02-11T19:02:09;8.10;99.90
48946;DHT22;34999;50.940;3.998;2023-02-11T19:05:15;8.00;99.90
48946;DHT22;34999;50.940;3.998;2023-02-11T19:08:21;8.00;99.90
48946;DHT22;34999;50.940;3.998;2023-02-11T19:11:28;8.00;99.90
48946;DHT22;34999;50.940;3.998;2023-02-11T19:14:54;8.00;99.90
48946;DHT22;34999;50.940;3.998;2023-02-11T19:18:03;8.00;99.90
48946;DHT22;34999;50.940;3.998;2023-02-11T19:21:10;8.00;99.90
48946;DHT22;34999;50.940;3.998;2023-02-11T19:24:17;8.00;99.90
48946;DHT22;34999;50.940;3.998;2023-02-11T19:27:23;8.00;99.90
48946;DHT22;34999;50.940;3.998;2023-02-11T19:30:30;8.00;99.90
48946;DHT22;34999;50.940;3.998;2023-02-11T19:33:37;8.00;99.90
48946;DHT22;34999;50.940;3.998;2023-02-11T19:36:43;8.00;99.90
48946;DHT22;34999;50.940;3.998;2023-02-11T19:39:49;8.00;99.90
48946;DHT22;34999;50.940;3.998;2023-02-11T19:42:55;8.00;99.90
48946;DHT22;34999;50.940;3.998;2023-02-11T19:46:02;8.00;99.90
48946;DHT22;34999;50.940;3.998;2023-02-11T19:49:10;7.90;99.90
48946;DHT22;34999;50.940;3.998;2023-02-11T19:52:18;8.00;99.90
48946;DHT22;34999;50.940;3.998;2023-02-11T19:55:24;8.00;99.90
48946;DHT22;34999;50.940;3.998;2023-02-11T19:58:30;7.90;99.90
48946;DHT22;34999;50.940;3.998;2023-02-11T20:01:38;7.90;99.90
48946;DHT22;34999;50.940;3.998;2023-02-11T20:04:44;7.90;99.90
48946;DHT22;34999;50.940;3.998;2023-02-11T20:07:50;7.90;99.90
48946;DHT22;34999;50.940;3.998;2023-02-11T20:10:56;7.90;99.90
48946;DHT22;34999;50.940;3.998;2023-02-11T20:14:02;7.90;99.90
48946;DHT22;34999;50.940;3.998;2023-02-11T20:17:09;7.90;99.90
48946;DHT22;34999;50.940;3.998;2023-02-11T20:20:15;7.90;99.90
48946;DHT22;34999;50.940;3.998;2023-02-11T20:23:21;7.80;99.90
48946;DHT22;34999;50.940;3.998;2023-02-11T20:26:29;7.80;99.90
48946;DHT22;34999;50.940;3.998;2023-02-11T20:29:34;7.80;99.90